createdAt,value
2018-06-18T00:00:01.141Z,0.00
2018-06-18T00:03:00.493Z,0.00
2018-06-18T00:06:00.357Z,0.00
2018-06-18T00:09:00.266Z,0.00
2018-06-18T00:12:00.234Z,0.00
2018-06-18T00:15:00.229Z,0.00
2018-06-18T00:18:21.151Z,0.00
2018-06-18T00:21:00.137Z,0.00
2018-06-18T00:24:00.055Z,0.00
2018-06-18T00:27:00.069Z,0.00
2018-06-18T00:30:00.019Z,0.00
2018-06-18T00:32:59.947Z,0.00
2018-06-18T00:35:59.935Z,0.00
2018-06-18T00:38:59.912Z,0.00
2018-06-18T00:41:59.823Z,0.00
2018-06-18T00:44:59.850Z,0.00
2018-06-18T00:47:59.765Z,0.00
2018-06-18T00:50:59.776Z,0.00
2018-06-18T00:53:59.680Z,0.00
2018-06-18T00:56:59.677Z,0.00
2018-06-18T00:59:59.665Z,0.00
2018-06-18T01:02:59.590Z,0.00
2018-06-18T01:05:59.549Z,0.00
2018-06-18T01:08:59.542Z,0.00
2018-06-18T01:11:59.516Z,0.00
2018-06-18T01:14:59.500Z,0.00
2018-06-18T01:17:59.433Z,0.00
2018-06-18T01:20:59.408Z,0.00
2018-06-18T01:23:59.385Z,0.00
2018-06-18T01:26:59.337Z,0.00
2018-06-18T01:29:59.284Z,0.00
2018-06-18T01:32:59.321Z,0.00
2018-06-18T01:35:59.231Z,0.00
2018-06-18T01:38:59.211Z,0.00
2018-06-18T01:41:59.181Z,0.00
2018-06-18T01:44:59.126Z,0.00
2018-06-18T01:47:59.141Z,0.00
2018-06-18T01:50:59.068Z,0.00
2018-06-18T01:53:59.077Z,0.00
2018-06-18T01:56:58.985Z,0.00
2018-06-18T01:59:58.986Z,0.00
2018-06-18T02:02:58.955Z,0.00
2018-06-18T02:05:58.865Z,0.00
2018-06-18T02:08:58.842Z,0.00
2018-06-18T02:11:58.794Z,0.00
2018-06-18T02:14:58.784Z,0.00
2018-06-18T02:17:58.715Z,0.00
2018-06-18T02:20:58.703Z,0.00
2018-06-18T02:23:58.656Z,0.00
2018-06-18T02:26:58.651Z,0.00
2018-06-18T02:29:58.602Z,0.00
2018-06-18T02:32:58.578Z,0.00
2018-06-18T02:35:58.531Z,0.00
2018-06-18T02:38:58.526Z,0.00
2018-06-18T02:41:58.460Z,0.00
2018-06-18T02:44:58.462Z,0.00
2018-06-18T02:47:58.452Z,0.00
2018-06-18T02:50:58.395Z,0.00
2018-06-18T02:53:59.001Z,0.00
2018-06-18T02:56:58.310Z,0.00
2018-06-18T02:59:58.256Z,0.00
2018-06-18T03:02:58.248Z,0.00
2018-06-18T03:05:58.191Z,5.62
2018-06-18T03:08:58.165Z,5.62
2018-06-18T03:11:58.146Z,5.62
2018-06-18T03:14:58.164Z,11.25
2018-06-18T03:17:58.051Z,11.25
2018-06-18T03:20:58.060Z,11.25
2018-06-18T03:23:58.025Z,16.88
2018-06-18T03:26:57.981Z,16.88
2018-06-18T03:29:57.913Z,16.88
2018-06-18T03:32:57.900Z,22.50
2018-06-18T03:35:57.866Z,28.12
2018-06-18T03:38:57.856Z,39.38
2018-06-18T03:41:57.848Z,50.62
2018-06-18T03:44:57.801Z,50.62
2018-06-18T03:47:57.725Z,50.62
2018-06-18T03:50:57.699Z,50.62
2018-06-18T03:53:57.641Z,56.25
2018-06-18T03:56:58.487Z,61.88
2018-06-18T03:59:57.585Z,78.75
2018-06-18T04:02:57.554Z,84.38
2018-06-18T04:05:57.500Z,84.38
2018-06-18T04:08:57.537Z,90.00
2018-06-18T04:11:57.457Z,90.00
2018-06-18T04:14:57.483Z,90.00
2018-06-18T04:17:57.379Z,95.62
2018-06-18T04:20:57.360Z,90.00
2018-06-18T04:23:57.305Z,90.00
2018-06-18T04:27:12.687Z,106.88
2018-06-18T04:29:57.264Z,123.75
2018-06-18T04:32:57.233Z,146.25
2018-06-18T04:35:57.199Z,168.75
2018-06-18T04:38:57.165Z,191.25
2018-06-18T04:41:57.094Z,253.12
2018-06-18T04:44:57.967Z,275.62
2018-06-18T04:47:57.050Z,253.12
2018-06-18T04:50:57.030Z,213.75
2018-06-18T04:53:56.980Z,230.62
2018-06-18T04:56:56.927Z,292.50
2018-06-18T04:59:56.930Z,275.62
2018-06-18T05:02:56.928Z,270.00
2018-06-18T05:05:56.837Z,303.75
2018-06-18T05:08:56.791Z,337.50
2018-06-18T05:11:56.762Z,343.12
2018-06-18T05:14:56.718Z,348.75
2018-06-18T05:17:56.688Z,320.62
2018-06-18T05:20:56.657Z,343.12
2018-06-18T05:23:56.613Z,343.12
2018-06-18T05:26:56.633Z,388.12
2018-06-18T05:29:56.573Z,511.88
2018-06-18T05:32:56.514Z,511.88
2018-06-18T05:35:56.495Z,523.12
2018-06-18T05:38:56.473Z,466.88
2018-06-18T05:41:56.403Z,371.25
2018-06-18T05:44:56.440Z,472.50
2018-06-18T05:47:56.346Z,343.12
2018-06-18T05:50:56.349Z,371.25
2018-06-18T05:53:56.287Z,478.12
2018-06-18T05:56:56.329Z,607.50
2018-06-18T05:59:56.238Z,523.12
2018-06-18T06:02:56.216Z,596.25
2018-06-18T06:05:56.237Z,613.12
2018-06-18T06:08:56.118Z,455.62
2018-06-18T06:11:56.086Z,540.00
2018-06-18T06:14:56.061Z,472.50
2018-06-18T06:17:56.013Z,438.75
2018-06-18T06:20:55.984Z,337.50
2018-06-18T06:23:55.944Z,416.25
2018-06-18T06:26:55.959Z,393.75
2018-06-18T06:29:55.893Z,444.38
2018-06-18T06:32:55.862Z,500.62
2018-06-18T06:35:55.812Z,466.88
2018-06-18T06:38:55.805Z,495.00
2018-06-18T06:41:55.741Z,466.88
2018-06-18T06:44:55.751Z,478.12
2018-06-18T06:47:55.659Z,528.75
2018-06-18T06:50:55.674Z,483.75
2018-06-18T06:53:55.625Z,579.38
2018-06-18T06:56:55.599Z,618.75
2018-06-18T06:59:55.566Z,663.75
2018-06-18T07:02:55.531Z,703.12
2018-06-18T07:05:55.460Z,984.38
2018-06-18T07:08:55.460Z,860.62
2018-06-18T07:11:55.477Z,810.00
2018-06-18T07:14:55.382Z,826.88
2018-06-18T07:17:55.325Z,973.12
2018-06-18T07:20:55.300Z,1035.00
2018-06-18T07:23:55.257Z,1012.50
2018-06-18T07:26:55.287Z,990.00
2018-06-18T07:29:55.194Z,967.50
2018-06-18T07:32:55.179Z,2154.38
2018-06-18T07:35:55.127Z,1513.12
2018-06-18T07:38:55.108Z,1136.25
2018-06-18T07:41:55.069Z,1490.62
2018-06-18T07:44:55.081Z,2362.50
2018-06-18T07:49:20.648Z,1659.38
2018-06-18T07:52:20.616Z,2025.00
2018-06-18T07:55:20.695Z,1636.88
2018-06-18T07:59:48.869Z,1726.88
2018-06-18T08:02:48.831Z,1468.12
2018-06-18T08:05:48.814Z,1805.62
2018-06-18T08:08:48.785Z,2171.25
2018-06-18T08:11:48.747Z,1524.38
2018-06-18T08:14:48.719Z,1524.38
2018-06-18T08:17:48.704Z,1552.50
2018-06-18T08:20:48.643Z,1980.00
2018-06-18T08:23:48.674Z,1260.00
2018-06-18T08:26:48.608Z,1766.25
2018-06-18T08:29:48.552Z,2013.75
2018-06-18T08:32:48.523Z,1507.50
2018-06-18T08:35:48.497Z,1861.88
2018-06-18T08:38:48.452Z,2176.88
2018-06-18T08:41:48.429Z,2098.12
2018-06-18T08:44:48.390Z,1428.75
2018-06-18T08:47:48.495Z,1243.12
2018-06-18T08:50:48.319Z,1018.12
2018-06-18T08:53:48.340Z,973.12
2018-06-18T08:56:48.268Z,905.62
2018-06-18T08:59:48.250Z,776.25
2018-06-18T09:02:48.195Z,731.25
2018-06-18T09:05:48.173Z,1428.75
2018-06-18T09:08:48.126Z,3054.38
2018-06-18T09:11:48.111Z,2885.62
2018-06-18T09:14:48.062Z,2846.25
2018-06-18T09:17:48.042Z,2863.12
2018-06-18T09:20:48.030Z,1434.38
2018-06-18T09:23:47.990Z,3504.38
2018-06-18T09:26:47.941Z,1288.12
2018-06-18T09:29:47.920Z,1518.75
2018-06-18T09:32:47.880Z,1096.88
2018-06-18T09:35:47.891Z,1743.75
2018-06-18T09:38:47.815Z,1215.00
2018-06-18T09:41:47.791Z,770.62
2018-06-18T09:44:47.770Z,900.00
2018-06-18T09:47:47.737Z,1057.50
2018-06-18T09:50:47.694Z,1316.25
2018-06-18T09:53:47.665Z,1676.25
2018-06-18T09:56:47.627Z,1867.50
2018-06-18T09:59:47.608Z,1895.62
2018-06-18T10:02:47.558Z,1670.62
2018-06-18T10:05:47.550Z,2210.62
2018-06-18T10:08:47.624Z,1884.38
2018-06-18T10:11:47.481Z,1693.12
2018-06-18T10:14:47.438Z,1805.62
2018-06-18T10:17:47.416Z,1147.50
2018-06-18T10:20:47.369Z,911.25
2018-06-18T10:23:47.363Z,1209.38
2018-06-18T10:26:47.309Z,1749.38
2018-06-18T10:29:47.289Z,1816.88
2018-06-18T10:32:47.245Z,1755.00
2018-06-18T10:35:47.220Z,1575.00
2018-06-18T10:38:47.170Z,1704.38
2018-06-18T10:41:47.171Z,1440.00
2018-06-18T10:44:47.114Z,1569.38
2018-06-18T10:47:47.113Z,1845.00
2018-06-18T10:50:47.055Z,1816.88
2018-06-18T10:53:47.036Z,1743.75
2018-06-18T10:56:47.079Z,1642.50
2018-06-18T10:59:46.971Z,1501.88
2018-06-18T11:02:46.936Z,1895.62
2018-06-18T11:05:46.925Z,1271.25
2018-06-18T11:08:46.875Z,1271.25
2018-06-18T11:11:46.851Z,1428.75
2018-06-18T11:14:46.802Z,1046.25
2018-06-18T11:17:46.772Z,714.38
2018-06-18T11:20:46.736Z,613.12
2018-06-18T11:23:46.772Z,900.00
2018-06-18T11:26:46.749Z,843.75
2018-06-18T11:29:46.658Z,1051.88
2018-06-18T11:32:46.628Z,1023.75
2018-06-18T11:35:46.598Z,973.12
2018-06-18T11:38:46.552Z,888.75
2018-06-18T11:41:46.543Z,1231.88
2018-06-18T11:44:46.483Z,1192.50
2018-06-18T11:47:46.465Z,1451.25
2018-06-18T11:50:46.422Z,1080.00
2018-06-18T11:53:46.381Z,849.38
2018-06-18T11:56:46.355Z,708.75
2018-06-18T11:59:46.337Z,551.25
2018-06-18T12:02:46.297Z,697.50
2018-06-18T12:05:46.267Z,500.62
2018-06-18T12:08:46.235Z,438.75
2018-06-18T12:11:46.211Z,348.75
2018-06-18T12:14:46.150Z,331.88
2018-06-18T12:17:46.142Z,326.25
2018-06-18T12:20:46.076Z,309.38
2018-06-18T12:23:46.077Z,331.88
2018-06-18T12:26:46.020Z,399.38
2018-06-18T12:29:46.008Z,472.50
2018-06-18T12:32:45.941Z,579.38
2018-06-18T12:35:45.931Z,506.25
2018-06-18T12:38:45.879Z,309.38
2018-06-18T12:41:45.880Z,382.50
2018-06-18T12:44:45.842Z,579.38
2018-06-18T12:47:46.990Z,815.62
2018-06-18T12:50:45.739Z,1063.12
2018-06-18T12:53:45.739Z,1125.00
2018-06-18T12:56:45.681Z,984.38
2018-06-18T12:59:45.668Z,995.62
2018-06-18T13:02:45.611Z,1209.38
2018-06-18T13:05:45.604Z,1181.25
2018-06-18T13:08:45.558Z,1231.88
2018-06-18T13:11:45.533Z,860.62
2018-06-18T13:14:45.480Z,540.00
2018-06-18T13:17:45.470Z,253.12
2018-06-18T13:20:45.417Z,174.38
2018-06-18T13:23:45.405Z,236.25
2018-06-18T13:26:45.376Z,596.25
2018-06-18T13:29:45.337Z,911.25
2018-06-18T13:32:45.294Z,1085.62
2018-06-18T13:35:45.264Z,1321.88
2018-06-18T13:38:45.214Z,1440.00
2018-06-18T13:41:45.204Z,1310.62
2018-06-18T13:44:45.167Z,1361.25
2018-06-18T13:47:45.126Z,1597.50
2018-06-18T13:50:45.099Z,2244.38
2018-06-18T13:53:45.075Z,894.38
2018-06-18T13:56:45.052Z,939.38
2018-06-18T13:59:45.007Z,607.50
2018-06-18T14:02:44.960Z,455.62
2018-06-18T14:05:44.966Z,343.12
2018-06-18T14:08:44.917Z,309.38
2018-06-18T14:11:44.898Z,348.75
2018-06-18T14:14:44.829Z,320.62
2018-06-18T14:17:44.808Z,416.25
2018-06-18T14:20:44.775Z,686.25
2018-06-18T14:23:44.732Z,585.00
2018-06-18T14:26:44.735Z,579.38
2018-06-18T14:29:44.683Z,720.00
2018-06-18T14:32:44.653Z,765.00
2018-06-18T14:35:44.600Z,1080.00
2018-06-18T14:38:44.567Z,1378.12
2018-06-18T14:41:44.602Z,1428.75
2018-06-18T14:44:44.500Z,1248.75
2018-06-18T14:47:44.475Z,1288.12
2018-06-18T14:50:44.449Z,1524.38
2018-06-18T14:53:44.420Z,1400.62
2018-06-18T14:56:44.385Z,1237.50
2018-06-18T14:59:44.415Z,900.00
2018-06-18T15:02:44.330Z,455.62
2018-06-18T15:05:44.311Z,258.75
2018-06-18T15:08:44.233Z,275.62
2018-06-18T15:11:44.235Z,202.50
2018-06-18T15:14:44.273Z,427.50
2018-06-18T15:17:44.155Z,585.00
2018-06-18T15:20:44.113Z,579.38
2018-06-18T15:23:44.149Z,298.12
2018-06-18T15:26:44.109Z,241.88
2018-06-18T15:29:44.021Z,286.88
2018-06-18T15:32:43.986Z,472.50
2018-06-18T15:35:43.956Z,748.12
2018-06-18T15:38:43.902Z,1248.75
2018-06-18T15:41:43.906Z,1293.75
2018-06-18T15:44:43.843Z,2137.50
2018-06-18T15:47:43.821Z,759.38
2018-06-18T15:50:43.765Z,601.88
2018-06-18T15:53:43.779Z,641.25
2018-06-18T15:56:43.779Z,528.75
2018-06-18T15:59:43.695Z,393.75
2018-06-18T16:02:43.665Z,286.88
2018-06-18T16:05:43.627Z,455.62
2018-06-18T16:08:43.634Z,410.62
2018-06-18T16:11:43.561Z,405.00
2018-06-18T16:14:43.517Z,427.50
2018-06-18T16:17:43.530Z,607.50
2018-06-18T16:20:43.438Z,669.38
2018-06-18T16:23:43.423Z,427.50
2018-06-18T16:26:43.424Z,433.12
2018-06-18T16:29:43.367Z,483.75
2018-06-18T16:32:43.307Z,438.75
2018-06-18T16:35:43.306Z,534.38
2018-06-18T16:38:43.237Z,652.50
2018-06-18T16:41:43.358Z,478.12
2018-06-18T16:44:43.189Z,388.12
2018-06-18T16:47:43.173Z,686.25
2018-06-18T16:50:43.107Z,815.62
2018-06-18T16:53:43.094Z,635.62
2018-06-18T16:56:43.046Z,489.38
2018-06-18T16:59:43.024Z,675.00
2018-06-18T17:02:43.016Z,703.12
2018-06-18T17:05:42.964Z,1260.00
2018-06-18T17:08:42.927Z,1074.38
2018-06-18T17:11:42.883Z,770.62
2018-06-18T17:14:42.841Z,1006.88
2018-06-18T17:17:42.967Z,995.62
2018-06-18T17:20:42.795Z,545.62
2018-06-18T17:23:42.784Z,416.25
2018-06-18T17:26:42.725Z,866.25
2018-06-18T17:29:42.727Z,585.00
2018-06-18T17:32:42.672Z,804.38
2018-06-18T17:35:42.691Z,736.88
2018-06-18T17:38:42.598Z,714.38
2018-06-18T17:41:42.566Z,551.25
2018-06-18T17:44:42.545Z,641.25
2018-06-18T17:47:42.499Z,630.00
2018-06-18T17:50:42.462Z,669.38
2018-06-18T17:53:42.483Z,376.88
2018-06-18T17:56:42.396Z,376.88
2018-06-18T17:59:42.396Z,478.12
2018-06-18T18:02:42.397Z,517.50
2018-06-18T18:05:42.317Z,410.62
2018-06-18T18:08:42.255Z,230.62
2018-06-18T18:11:42.260Z,208.12
2018-06-18T18:14:42.194Z,213.75
2018-06-18T18:17:42.177Z,219.38
2018-06-18T18:20:42.123Z,219.38
2018-06-18T18:23:44.021Z,253.12
2018-06-18T18:26:42.060Z,286.88
2018-06-18T18:29:42.056Z,253.12
2018-06-18T18:32:41.987Z,270.00
2018-06-18T18:35:41.974Z,264.38
2018-06-18T18:38:41.924Z,236.25
2018-06-18T18:41:41.927Z,180.00
2018-06-18T18:44:41.860Z,174.38
2018-06-18T18:47:41.872Z,140.62
2018-06-18T18:50:41.782Z,135.00
2018-06-18T18:53:41.772Z,196.88
2018-06-18T18:56:41.720Z,163.12
2018-06-18T18:59:41.705Z,140.62
2018-06-18T19:02:41.713Z,123.75
2018-06-18T19:05:41.649Z,112.50
2018-06-18T19:08:41.591Z,112.50
2018-06-18T19:11:41.624Z,118.12
2018-06-18T19:14:41.514Z,112.50
2018-06-18T19:17:41.533Z,101.25
2018-06-18T19:20:41.460Z,78.75
2018-06-18T19:23:41.438Z,67.50
2018-06-18T19:26:41.440Z,61.88
2018-06-18T19:29:41.371Z,56.25
2018-06-18T19:32:41.316Z,50.62
2018-06-18T19:35:41.301Z,45.00
2018-06-18T19:38:41.254Z,39.38
2018-06-18T19:41:41.232Z,33.75
2018-06-18T19:44:41.182Z,28.12
2018-06-18T19:47:41.168Z,22.50
2018-06-18T19:50:41.122Z,16.88
2018-06-18T19:53:41.092Z,11.25
2018-06-18T19:56:41.056Z,11.25
2018-06-18T19:59:41.016Z,5.62
2018-06-18T20:02:40.978Z,5.62
2018-06-18T20:05:40.962Z,5.62
2018-06-18T20:08:40.911Z,0.00
2018-06-18T20:11:40.884Z,0.00
2018-06-18T20:14:40.848Z,0.00
2018-06-18T20:17:40.824Z,0.00
2018-06-18T20:20:40.775Z,0.00
2018-06-18T20:23:40.772Z,0.00
2018-06-18T20:26:40.699Z,0.00
2018-06-18T20:29:40.694Z,0.00
2018-06-18T20:32:40.649Z,0.00
2018-06-18T20:35:40.624Z,0.00
2018-06-18T20:38:40.564Z,0.00
2018-06-18T20:41:40.570Z,0.00
2018-06-18T20:44:40.503Z,0.00
2018-06-18T20:47:40.486Z,0.00
2018-06-18T20:50:40.485Z,0.00
2018-06-18T20:53:40.405Z,0.00
2018-06-18T20:56:40.376Z,0.00
2018-06-18T20:59:40.339Z,0.00
2018-06-18T21:02:40.377Z,0.00
2018-06-18T21:05:40.279Z,0.00
2018-06-18T21:08:40.236Z,0.00
2018-06-18T21:11:40.997Z,0.00
2018-06-18T21:14:40.165Z,0.00
2018-06-18T21:17:40.161Z,0.00
2018-06-18T21:20:40.090Z,0.00
2018-06-18T21:23:41.002Z,0.00
2018-06-18T21:26:40.027Z,0.00
2018-06-18T21:29:40.008Z,0.00
2018-06-18T21:32:39.964Z,0.00
2018-06-18T21:35:39.932Z,0.00
2018-06-18T21:38:39.894Z,0.00
2018-06-18T21:41:39.869Z,0.00
2018-06-18T21:44:39.831Z,0.00
2018-06-18T21:47:39.790Z,0.00
2018-06-18T21:50:39.759Z,0.00
2018-06-18T21:53:39.735Z,0.00
2018-06-18T21:56:39.686Z,0.00
2018-06-18T21:59:39.662Z,0.00
2018-06-18T22:02:39.653Z,0.00
2018-06-18T22:05:39.615Z,0.00
2018-06-18T22:08:39.555Z,0.00
2018-06-18T22:11:39.546Z,0.00
2018-06-18T22:14:39.480Z,0.00
2018-06-18T22:17:44.750Z,0.00
2018-06-18T22:20:39.417Z,0.00
2018-06-18T22:23:39.388Z,0.00
2018-06-18T22:26:39.362Z,0.00
2018-06-18T22:29:39.337Z,0.00
2018-06-18T22:32:39.296Z,0.00
2018-06-18T22:35:39.257Z,0.00
2018-06-18T22:38:39.276Z,0.00
2018-06-18T22:41:39.208Z,0.00
2018-06-18T22:44:39.152Z,0.00
2018-06-18T22:47:39.120Z,0.00
2018-06-18T22:50:39.087Z,0.00
2018-06-18T22:53:40.491Z,0.00
2018-06-18T22:56:39.010Z,0.00
2018-06-18T22:59:38.981Z,0.00
2018-06-18T23:02:38.946Z,0.00
2018-06-18T23:05:38.966Z,0.00
2018-06-18T23:08:38.871Z,0.00
2018-06-18T23:11:38.846Z,0.00
2018-06-18T23:14:38.812Z,0.00
2018-06-18T23:17:38.788Z,0.00
2018-06-18T23:20:38.743Z,0.00
2018-06-18T23:23:38.715Z,0.00
2018-06-18T23:26:38.678Z,0.00
2018-06-18T23:29:38.654Z,0.00
2018-06-18T23:32:38.642Z,0.00
2018-06-18T23:35:38.571Z,0.00
2018-06-18T23:38:38.533Z,0.00
2018-06-18T23:41:38.515Z,0.00
2018-06-18T23:44:38.465Z,0.00
2018-06-18T23:47:38.455Z,0.00
2018-06-18T23:50:38.407Z,0.00
2018-06-18T23:53:38.380Z,0.00
2018-06-18T23:56:38.322Z,0.00
2018-06-18T23:59:38.359Z,0.00
